sensor_id;sensor_type;location;lat;lon;timestamp;P1;durP1;ratioP1;P2;durP2;ratioP2
50102;SDS011;35993;52.604;10.078;2023-04-06T00:00:39;10.18;;;5.70;;
50102;SDS011;35993;52.604;10.078;2023-04-06T00:03:05;9.48;;;5.07;;
50102;SDS011;35993;52.604;10.078;2023-04-06T00:05:31;8.52;;;5.07;;
50102;SDS011;35993;52.604;10.078;2023-04-06T00:07:57;10.05;;;5.15;;
50102;SDS011;35993;52.604;10.078;2023-04-06T00:10:23;10.65;;;5.28;;
50102;SDS011;35993;52.604;10.078;2023-04-06T00:12:51;8.75;;;5.25;;
50102;SDS011;35993;52.604;10.078;2023-04-06T00:15:16;8.43;;;5.40;;
50102;SDS011;35993;52.604;10.078;2023-04-06T00:17:42;9.45;;;5.18;;
50102;SDS011;35993;52.604;10.078;2023-04-06T00:20:07;10.20;;;5.05;;
50102;SDS011;35993;52.604;10.078;2023-04-06T00:22:34;9.18;;;5.28;;
50102;SDS011;35993;52.604;10.078;2023-04-06T00:24:59;8.45;;;5.25;;
50102;SDS011;35993;52.604;10.078;2023-04-06T00:27:26;8.43;;;5.13;;
50102;SDS011;35993;52.604;10.078;2023-04-06T00:29:52;9.30;;;5.28;;
50102;SDS011;35993;52.604;10.078;2023-04-06T00:32:18;9.65;;;4.80;;
50102;SDS011;35993;52.604;10.078;2023-04-06T00:34:43;8.32;;;5.00;;
50102;SDS011;35993;52.604;10.078;2023-04-06T00:37:10;7.38;;;4.20;;
50102;SDS011;35993;52.604;10.078;2023-04-06T00:39:36;8.73;;;5.03;;
50102;SDS011;35993;52.604;10.078;2023-04-06T00:42:02;10.27;;;4.90;;
50102;SDS011;35993;52.604;10.078;2023-04-06T00:44:41;8.05;;;5.15;;
50102;SDS011;35993;52.604;10.078;2023-04-06T00:47:07;9.13;;;5.80;;
50102;SDS011;35993;52.604;10.078;2023-04-06T00:49:33;6.85;;;5.10;;
50102;SDS011;35993;52.604;10.078;2023-04-06T00:51:59;8.20;;;5.35;;
50102;SDS011;35993;52.604;10.078;2023-04-06T00:54:26;9.40;;;5.25;;
50102;SDS011;35993;52.604;10.078;2023-04-06T00:56:52;10.82;;;4.80;;
50102;SDS011;35993;52.604;10.078;2023-04-06T00:59:18;7.70;;;5.20;;
50102;SDS011;35993;52.604;10.078;2023-04-06T01:01:47;8.18;;;4.80;;
50102;SDS011;35993;52.604;10.078;2023-04-06T01:04:30;10.57;;;5.15;;
50102;SDS011;35993;52.604;10.078;2023-04-06T01:06:57;7.40;;;4.72;;
50102;SDS011;35993;52.604;10.078;2023-04-06T01:09:29;10.45;;;5.32;;
50102;SDS011;35993;52.604;10.078;2023-04-06T01:11:56;8.52;;;5.28;;
50102;SDS011;35993;52.604;10.078;2023-04-06T01:14:28;8.88;;;5.30;;
50102;SDS011;35993;52.604;10.078;2023-04-06T01:16:59;10.15;;;5.78;;
50102;SDS011;35993;52.604;10.078;2023-04-06T01:19:30;7.93;;;5.28;;
50102;SDS011;35993;52.604;10.078;2023-04-06T01:21:58;10.23;;;5.88;;
50102;SDS011;35993;52.604;10.078;2023-04-06T01:24:30;7.97;;;5.20;;
50102;SDS011;35993;52.604;10.078;2023-04-06T01:27:18;8.57;;;5.18;;
50102;SDS011;35993;52.604;10.078;2023-04-06T01:30:02;8.65;;;5.15;;
50102;SDS011;35993;52.604;10.078;2023-04-06T01:32:39;7.38;;;4.90;;
50102;SDS011;35993;52.604;10.078;2023-04-06T01:35:06;7.97;;;5.47;;
50102;SDS011;35993;52.604;10.078;2023-04-06T01:37:36;8.65;;;5.57;;
50102;SDS011;35993;52.604;10.078;2023-04-06T01:40:04;9.07;;;5.50;;
50102;SDS011;35993;52.604;10.078;2023-04-06T01:42:40;8.23;;;5.60;;
50102;SDS011;35993;52.604;10.078;2023-04-06T01:45:08;8.02;;;5.28;;
50102;SDS011;35993;52.604;10.078;2023-04-06T01:47:34;8.30;;;5.13;;
50102;SDS011;35993;52.604;10.078;2023-04-06T01:50:01;8.77;;;5.40;;
50102;SDS011;35993;52.604;10.078;2023-04-06T01:52:29;9.63;;;5.03;;
50102;SDS011;35993;52.604;10.078;2023-04-06T01:54:54;9.05;;;5.35;;
50102;SDS011;35993;52.604;10.078;2023-04-06T01:57:40;8.77;;;5.65;;
50102;SDS011;35993;52.604;10.078;2023-04-06T02:00:14;10.43;;;5.57;;
50102;SDS011;35993;52.604;10.078;2023-04-06T02:02:43;9.18;;;5.78;;
50102;SDS011;35993;52.604;10.078;2023-04-06T02:05:16;10.40;;;5.45;;
50102;SDS011;35993;52.604;10.078;2023-04-06T02:07:42;11.18;;;6.22;;
50102;SDS011;35993;52.604;10.078;2023-04-06T02:10:12;10.55;;;5.85;;
50102;SDS011;35993;52.604;10.078;2023-04-06T02:12:40;12.38;;;5.97;;
50102;SDS011;35993;52.604;10.078;2023-04-06T02:15:09;11.05;;;6.22;;
50102;SDS011;35993;52.604;10.078;2023-04-06T02:17:35;12.10;;;6.20;;
50102;SDS011;35993;52.604;10.078;2023-04-06T02:20:02;10.32;;;5.95;;
50102;SDS011;35993;52.604;10.078;2023-04-06T02:22:28;12.35;;;6.68;;
50102;SDS011;35993;52.604;10.078;2023-04-06T02:24:53;9.20;;;6.30;;
50102;SDS011;35993;52.604;10.078;2023-04-06T02:27:19;11.95;;;6.35;;
50102;SDS011;35993;52.604;10.078;2023-04-06T02:29:46;12.00;;;5.90;;
50102;SDS011;35993;52.604;10.078;2023-04-06T02:32:13;14.93;;;7.10;;
50102;SDS011;35993;52.604;10.078;2023-04-06T02:34:38;11.82;;;6.30;;
50102;SDS011;35993;52.604;10.078;2023-04-06T02:37:04;9.48;;;6.07;;
50102;SDS011;35993;52.604;10.078;2023-04-06T02:39:30;9.70;;;5.97;;
50102;SDS011;35993;52.604;10.078;2023-04-06T02:41:55;9.85;;;5.80;;
50102;SDS011;35993;52.604;10.078;2023-04-06T02:44:24;10.63;;;6.40;;
50102;SDS011;35993;52.604;10.078;2023-04-06T02:46:50;9.55;;;6.40;;
50102;SDS011;35993;52.604;10.078;2023-04-06T02:49:16;9.85;;;6.22;;
50102;SDS011;35993;52.604;10.078;2023-04-06T02:51:43;11.30;;;6.20;;
50102;SDS011;35993;52.604;10.078;2023-04-06T02:54:22;10.43;;;6.18;;
50102;SDS011;35993;52.604;10.078;2023-04-06T02:56:49;8.68;;;6.18;;
50102;SDS011;35993;52.604;10.078;2023-04-06T02:59:14;9.68;;;5.90;;
50102;SDS011;35993;52.604;10.078;2023-04-06T03:01:46;8.57;;;5.93;;
50102;SDS011;35993;52.604;10.078;2023-04-06T03:04:12;9.90;;;5.97;;
50102;SDS011;35993;52.604;10.078;2023-04-06T03:06:39;10.32;;;6.00;;
50102;SDS011;35993;52.604;10.078;2023-04-06T03:09:15;10.10;;;5.55;;
50102;SDS011;35993;52.604;10.078;2023-04-06T03:11:43;9.48;;;6.00;;
50102;SDS011;35993;52.604;10.078;2023-04-06T03:14:09;12.35;;;6.25;;
50102;SDS011;35993;52.604;10.078;2023-04-06T03:16:34;10.50;;;6.30;;
50102;SDS011;35993;52.604;10.078;2023-04-06T03:19:01;13.52;;;5.70;;
50102;SDS011;35993;52.604;10.078;2023-04-06T03:21:30;8.73;;;6.20;;
50102;SDS011;35993;52.604;10.078;2023-04-06T03:23:55;9.98;;;5.80;;
50102;SDS011;35993;52.604;10.078;2023-04-06T03:26:22;9.25;;;6.30;;
50102;SDS011;35993;52.604;10.078;2023-04-06T03:28:50;8.32;;;5.93;;
50102;SDS011;35993;52.604;10.078;2023-04-06T03:31:15;8.68;;;5.63;;
50102;SDS011;35993;52.604;10.078;2023-04-06T03:33:55;9.50;;;5.80;;
50102;SDS011;35993;52.604;10.078;2023-04-06T03:36:25;10.68;;;6.10;;
50102;SDS011;35993;52.604;10.078;2023-04-06T03:38:54;11.40;;;6.07;;
50102;SDS011;35993;52.604;10.078;2023-04-06T03:41:20;9.18;;;5.82;;
50102;SDS011;35993;52.604;10.078;2023-04-06T03:43:54;10.02;;;5.80;;
50102;SDS011;35993;52.604;10.078;2023-04-06T03:46:20;8.10;;;5.80;;
50102;SDS011;35993;52.604;10.078;2023-04-06T03:48:50;11.52;;;6.40;;
50102;SDS011;35993;52.604;10.078;2023-04-06T03:51:18;9.40;;;5.80;;
50102;SDS011;35993;52.604;10.078;2023-04-06T03:53:44;9.95;;;5.88;;
50102;SDS011;35993;52.604;10.078;2023-04-06T03:56:10;10.15;;;5.93;;
50102;SDS011;35993;52.604;10.078;2023-04-06T03:58:36;9.10;;;5.63;;
50102;SDS011;35993;52.604;10.078;2023-04-06T04:01:01;9.50;;;6.03;;
50102;SDS011;35993;52.604;10.078;2023-04-06T04:03:27;11.30;;;5.60;;
50102;SDS011;35993;52.604;10.078;2023-04-06T04:05:53;11.20;;;5.60;;
50102;SDS011;35993;52.604;10.078;2023-04-06T04:08:21;9.93;;;5.93;;
50102;SDS011;35993;52.604;10.078;2023-04-06T04:10:47;11.25;;;5.82;;
50102;SDS011;35993;52.604;10.078;2023-04-06T04:13:12;10.43;;;5.95;;
50102;SDS011;35993;52.604;10.078;2023-04-06T04:15:40;8.93;;;5.97;;
50102;SDS011;35993;52.604;10.078;2023-04-06T04:18:06;9.32;;;5.22;;
50102;SDS011;35993;52.604;10.078;2023-04-06T04:20:32;9.30;;;5.90;;
50102;SDS011;35993;52.604;10.078;2023-04-06T04:22:57;9.23;;;6.00;;
50102;SDS011;35993;52.604;10.078;2023-04-06T04:25:23;10.30;;;5.88;;
50102;SDS011;35993;52.604;10.078;2023-04-06T04:27:49;7.57;;;5.47;;
50102;SDS011;35993;52.604;10.078;2023-04-06T04:30:15;9.97;;;5.63;;
50102;SDS011;35993;52.604;10.078;2023-04-06T04:32:41;7.07;;;5.28;;
50102;SDS011;35993;52.604;10.078;2023-04-06T04:35:08;10.75;;;5.82;;
50102;SDS011;35993;52.604;10.078;2023-04-06T04:37:38;9.38;;;5.43;;
50102;SDS011;35993;52.604;10.078;2023-04-06T04:40:04;10.87;;;5.67;;
50102;SDS011;35993;52.604;10.078;2023-04-06T04:42:37;9.75;;;5.75;;
50102;SDS011;35993;52.604;10.078;2023-04-06T04:45:06;12.50;;;5.90;;
50102;SDS011;35993;52.604;10.078;2023-04-06T04:47:36;9.23;;;5.28;;
50102;SDS011;35993;52.604;10.078;2023-04-06T04:50:03;9.93;;;5.65;;
50102;SDS011;35993;52.604;10.078;2023-04-06T04:52:30;13.60;;;5.68;;
50102;SDS011;35993;52.604;10.078;2023-04-06T04:55:18;7.55;;;5.03;;
50102;SDS011;35993;52.604;10.078;2023-04-06T04:57:46;9.38;;;5.65;;
50102;SDS011;35993;52.604;10.078;2023-04-06T05:00:12;9.53;;;5.70;;
50102;SDS011;35993;52.604;10.078;2023-04-06T05:02:42;8.07;;;4.68;;
50102;SDS011;35993;52.604;10.078;2023-04-06T05:05:20;8.77;;;5.40;;
50102;SDS011;35993;52.604;10.078;2023-04-06T05:07:46;8.77;;;5.38;;
50102;SDS011;35993;52.604;10.078;2023-04-06T05:10:20;6.65;;;4.85;;
50102;SDS011;35993;52.604;10.078;2023-04-06T05:12:54;8.93;;;5.20;;
50102;SDS011;35993;52.604;10.078;2023-04-06T05:15:19;10.93;;;5.07;;
50102;SDS011;35993;52.604;10.078;2023-04-06T05:17:46;9.32;;;5.47;;
50102;SDS011;35993;52.604;10.078;2023-04-06T05:20:17;11.77;;;5.32;;
50102;SDS011;35993;52.604;10.078;2023-04-06T05:22:47;10.18;;;4.93;;
50102;SDS011;35993;52.604;10.078;2023-04-06T05:25:14;9.63;;;5.20;;
50102;SDS011;35993;52.604;10.078;2023-04-06T05:27:40;8.93;;;5.00;;
50102;SDS011;35993;52.604;10.078;2023-04-06T05:30:15;9.20;;;4.80;;
50102;SDS011;35993;52.604;10.078;2023-04-06T05:32:44;8.13;;;4.90;;
50102;SDS011;35993;52.604;10.078;2023-04-06T05:35:10;9.77;;;4.55;;
50102;SDS011;35993;52.604;10.078;2023-04-06T05:37:37;9.48;;;5.15;;
50102;SDS011;35993;52.604;10.078;2023-04-06T05:40:03;9.63;;;5.10;;
50102;SDS011;35993;52.604;10.078;2023-04-06T05:42:42;6.20;;;4.72;;
50102;SDS011;35993;52.604;10.078;2023-04-06T05:45:09;8.80;;;4.97;;
50102;SDS011;35993;52.604;10.078;2023-04-06T05:47:39;10.85;;;5.88;;
50102;SDS011;35993;52.604;10.078;2023-04-06T05:50:16;9.82;;;4.68;;
50102;SDS011;35993;52.604;10.078;2023-04-06T05:52:42;8.77;;;4.70;;
50102;SDS011;35993;52.604;10.078;2023-04-06T05:55:09;10.35;;;4.97;;
50102;SDS011;35993;52.604;10.078;2023-04-06T05:57:38;8.90;;;4.93;;
50102;SDS011;35993;52.604;10.078;2023-04-06T06:00:04;9.40;;;4.90;;
50102;SDS011;35993;52.604;10.078;2023-04-06T06:02:37;9.82;;;4.95;;
50102;SDS011;35993;52.604;10.078;2023-04-06T06:05:05;7.63;;;4.35;;
50102;SDS011;35993;52.604;10.078;2023-04-06T06:07:31;7.93;;;4.90;;
50102;SDS011;35993;52.604;10.078;2023-04-06T06:10:00;7.43;;;4.40;;
50102;SDS011;35993;52.604;10.078;2023-04-06T06:12:31;8.40;;;5.15;;
50102;SDS011;35993;52.604;10.078;2023-04-06T06:14:57;10.38;;;5.03;;
50102;SDS011;35993;52.604;10.078;2023-04-06T06:17:24;8.30;;;4.65;;
50102;SDS011;35993;52.604;10.078;2023-04-06T06:19:51;9.95;;;5.00;;
50102;SDS011;35993;52.604;10.078;2023-04-06T06:22:17;9.50;;;4.60;;
50102;SDS011;35993;52.604;10.078;2023-04-06T06:24:45;10.02;;;4.72;;
50102;SDS011;35993;52.604;10.078;2023-04-06T06:27:11;9.65;;;4.65;;
50102;SDS011;35993;52.604;10.078;2023-04-06T06:29:39;8.35;;;5.07;;
50102;SDS011;35993;52.604;10.078;2023-04-06T06:32:04;6.50;;;4.55;;
50102;SDS011;35993;52.604;10.078;2023-04-06T06:34:32;8.85;;;5.18;;
50102;SDS011;35993;52.604;10.078;2023-04-06T06:37:01;7.63;;;4.70;;
50102;SDS011;35993;52.604;10.078;2023-04-06T06:39:27;8.48;;;5.05;;
50102;SDS011;35993;52.604;10.078;2023-04-06T06:41:53;9.30;;;5.15;;
50102;SDS011;35993;52.604;10.078;2023-04-06T06:44:23;10.63;;;5.15;;
50102;SDS011;35993;52.604;10.078;2023-04-06T06:46:49;9.77;;;4.95;;
50102;SDS011;35993;52.604;10.078;2023-04-06T06:49:15;7.50;;;4.53;;
50102;SDS011;35993;52.604;10.078;2023-04-06T06:51:41;7.72;;;4.60;;
50102;SDS011;35993;52.604;10.078;2023-04-06T06:54:06;8.00;;;5.00;;
50102;SDS011;35993;52.604;10.078;2023-04-06T06:56:32;8.27;;;4.78;;
50102;SDS011;35993;52.604;10.078;2023-04-06T06:58:58;8.07;;;4.80;;
50102;SDS011;35993;52.604;10.078;2023-04-06T07:01:23;8.57;;;4.72;;
50102;SDS011;35993;52.604;10.078;2023-04-06T07:03:49;8.30;;;5.00;;
50102;SDS011;35993;52.604;10.078;2023-04-06T07:06:15;9.07;;;5.25;;
50102;SDS011;35993;52.604;10.078;2023-04-06T07:08:41;11.05;;;4.68;;
50102;SDS011;35993;52.604;10.078;2023-04-06T07:11:07;7.70;;;4.90;;
50102;SDS011;35993;52.604;10.078;2023-04-06T07:13:33;6.93;;;4.30;;
50102;SDS011;35993;52.604;10.078;2023-04-06T07:16:00;7.18;;;4.65;;
50102;SDS011;35993;52.604;10.078;2023-04-06T07:18:27;7.20;;;4.45;;
50102;SDS011;35993;52.604;10.078;2023-04-06T07:20:52;8.43;;;4.55;;
50102;SDS011;35993;52.604;10.078;2023-04-06T07:23:18;6.35;;;4.45;;
50102;SDS011;35993;52.604;10.078;2023-04-06T07:25:44;9.15;;;4.85;;
50102;SDS011;35993;52.604;10.078;2023-04-06T07:28:10;9.80;;;5.07;;
50102;SDS011;35993;52.604;10.078;2023-04-06T07:30:37;10.13;;;4.63;;
50102;SDS011;35993;52.604;10.078;2023-04-06T07:33:03;7.72;;;4.90;;
50102;SDS011;35993;52.604;10.078;2023-04-06T07:35:29;8.55;;;4.80;;
50102;SDS011;35993;52.604;10.078;2023-04-06T07:37:56;8.07;;;4.45;;
50102;SDS011;35993;52.604;10.078;2023-04-06T07:40:22;8.25;;;4.72;;
50102;SDS011;35993;52.604;10.078;2023-04-06T07:42:50;8.48;;;5.40;;
50102;SDS011;35993;52.604;10.078;2023-04-06T07:45:15;6.72;;;4.57;;
50102;SDS011;35993;52.604;10.078;2023-04-06T07:47:42;9.73;;;5.30;;
50102;SDS011;35993;52.604;10.078;2023-04-06T07:50:08;7.93;;;4.93;;
50102;SDS011;35993;52.604;10.078;2023-04-06T07:52:34;6.82;;;4.70;;
50102;SDS011;35993;52.604;10.078;2023-04-06T07:55:01;8.02;;;5.05;;
50102;SDS011;35993;52.604;10.078;2023-04-06T07:57:28;8.80;;;4.88;;
50102;SDS011;35993;52.604;10.078;2023-04-06T07:59:53;7.07;;;4.85;;
50102;SDS011;35993;52.604;10.078;2023-04-06T08:02:19;9.52;;;5.03;;
50102;SDS011;35993;52.604;10.078;2023-04-06T08:04:45;7.80;;;4.70;;
50102;SDS011;35993;52.604;10.078;2023-04-06T08:07:10;8.23;;;4.75;;
50102;SDS011;35993;52.604;10.078;2023-04-06T08:09:36;7.13;;;4.60;;
50102;SDS011;35993;52.604;10.078;2023-04-06T08:12:02;7.60;;;4.95;;
50102;SDS011;35993;52.604;10.078;2023-04-06T08:14:27;10.02;;;5.05;;
50102;SDS011;35993;52.604;10.078;2023-04-06T08:16:53;7.53;;;4.63;;
50102;SDS011;35993;52.604;10.078;2023-04-06T08:19:19;6.28;;;4.45;;
50102;SDS011;35993;52.604;10.078;2023-04-06T08:21:44;7.95;;;4.80;;
50102;SDS011;35993;52.604;10.078;2023-04-06T08:24:11;7.53;;;4.85;;
50102;SDS011;35993;52.604;10.078;2023-04-06T08:26:37;10.48;;;4.80;;
50102;SDS011;35993;52.604;10.078;2023-04-06T08:29:03;8.73;;;4.90;;
50102;SDS011;35993;52.604;10.078;2023-04-06T08:31:29;8.30;;;5.25;;
50102;SDS011;35993;52.604;10.078;2023-04-06T08:33:55;8.65;;;4.53;;
50102;SDS011;35993;52.604;10.078;2023-04-06T08:36:21;8.43;;;5.30;;
50102;SDS011;35993;52.604;10.078;2023-04-06T08:38:48;8.95;;;5.07;;
50102;SDS011;35993;52.604;10.078;2023-04-06T08:41:15;7.03;;;5.03;;
50102;SDS011;35993;52.604;10.078;2023-04-06T08:43:47;8.40;;;4.90;;
50102;SDS011;35993;52.604;10.078;2023-04-06T08:46:21;6.65;;;4.80;;
50102;SDS011;35993;52.604;10.078;2023-04-06T08:48:48;8.90;;;4.63;;
50102;SDS011;35993;52.604;10.078;2023-04-06T08:51:15;7.10;;;4.28;;
50102;SDS011;35993;52.604;10.078;2023-04-06T08:53:41;10.18;;;4.80;;
50102;SDS011;35993;52.604;10.078;2023-04-06T08:56:06;7.32;;;4.72;;
50102;SDS011;35993;52.604;10.078;2023-04-06T08:58:34;6.78;;;4.50;;
50102;SDS011;35993;52.604;10.078;2023-04-06T09:01:02;6.80;;;4.43;;
50102;SDS011;35993;52.604;10.078;2023-04-06T09:03:32;7.30;;;4.72;;
50102;SDS011;35993;52.604;10.078;2023-04-06T09:06:00;8.50;;;4.95;;
50102;SDS011;35993;52.604;10.078;2023-04-06T09:08:26;9.82;;;4.78;;
50102;SDS011;35993;52.604;10.078;2023-04-06T09:10:51;7.32;;;4.68;;
50102;SDS011;35993;52.604;10.078;2023-04-06T09:13:17;6.60;;;4.30;;
50102;SDS011;35993;52.604;10.078;2023-04-06T09:15:43;8.65;;;4.60;;
50102;SDS011;35993;52.604;10.078;2023-04-06T09:18:08;8.23;;;4.72;;
50102;SDS011;35993;52.604;10.078;2023-04-06T09:20:34;6.43;;;4.72;;
50102;SDS011;35993;52.604;10.078;2023-04-06T09:23:00;9.77;;;5.13;;
50102;SDS011;35993;52.604;10.078;2023-04-06T09:25:25;7.80;;;4.75;;
50102;SDS011;35993;52.604;10.078;2023-04-06T09:27:59;7.40;;;4.63;;
50102;SDS011;35993;52.604;10.078;2023-04-06T09:30:28;8.93;;;4.18;;
50102;SDS011;35993;52.604;10.078;2023-04-06T09:32:55;6.70;;;4.32;;
50102;SDS011;35993;52.604;10.078;2023-04-06T09:35:22;7.30;;;5.10;;
50102;SDS011;35993;52.604;10.078;2023-04-06T09:37:49;7.40;;;4.75;;
50102;SDS011;35993;52.604;10.078;2023-04-06T09:40:16;8.02;;;4.75;;
50102;SDS011;35993;52.604;10.078;2023-04-06T09:42:45;7.85;;;4.35;;
50102;SDS011;35993;52.604;10.078;2023-04-06T09:45:12;7.15;;;4.70;;
50102;SDS011;35993;52.604;10.078;2023-04-06T09:47:39;6.97;;;4.45;;
50102;SDS011;35993;52.604;10.078;2023-04-06T09:50:07;8.23;;;4.40;;
50102;SDS011;35993;52.604;10.078;2023-04-06T09:52:49;6.45;;;4.28;;
50102;SDS011;35993;52.604;10.078;2023-04-06T09:55:21;7.75;;;4.40;;
50102;SDS011;35993;52.604;10.078;2023-04-06T09:57:58;6.68;;;4.20;;
50102;SDS011;35993;52.604;10.078;2023-04-06T10:01:12;8.23;;;4.88;;
50102;SDS011;35993;52.604;10.078;2023-04-06T10:06:22;6.70;;;4.50;;
50102;SDS011;35993;52.604;10.078;2023-04-06T10:08:51;7.43;;;4.63;;
50102;SDS011;35993;52.604;10.078;2023-04-06T10:11:20;9.15;;;4.85;;
50102;SDS011;35993;52.604;10.078;2023-04-06T10:13:46;7.80;;;4.45;;
50102;SDS011;35993;52.604;10.078;2023-04-06T10:16:15;7.47;;;4.20;;
50102;SDS011;35993;52.604;10.078;2023-04-06T10:18:46;8.43;;;4.72;;
50102;SDS011;35993;52.604;10.078;2023-04-06T10:21:16;7.60;;;4.50;;
50102;SDS011;35993;52.604;10.078;2023-04-06T10:23:49;8.02;;;4.70;;
50102;SDS011;35993;52.604;10.078;2023-04-06T10:26:19;8.40;;;5.35;;
50102;SDS011;35993;52.604;10.078;2023-04-06T10:28:47;8.05;;;4.90;;
50102;SDS011;35993;52.604;10.078;2023-04-06T10:31:14;9.27;;;5.10;;
50102;SDS011;35993;52.604;10.078;2023-04-06T10:33:39;8.60;;;5.00;;
50102;SDS011;35993;52.604;10.078;2023-04-06T10:36:21;8.45;;;5.07;;
50102;SDS011;35993;52.604;10.078;2023-04-06T10:38:58;10.57;;;4.30;;
50102;SDS011;35993;52.604;10.078;2023-04-06T10:41:34;8.93;;;4.78;;
50102;SDS011;35993;52.604;10.078;2023-04-06T10:44:06;7.47;;;4.57;;
50102;SDS011;35993;52.604;10.078;2023-04-06T10:46:32;8.73;;;4.90;;
50102;SDS011;35993;52.604;10.078;2023-04-06T10:49:09;7.50;;;4.35;;
50102;SDS011;35993;52.604;10.078;2023-04-06T10:51:39;9.40;;;5.05;;
50102;SDS011;35993;52.604;10.078;2023-04-06T10:54:06;9.20;;;4.70;;
50102;SDS011;35993;52.604;10.078;2023-04-06T10:56:32;8.13;;;4.40;;
50102;SDS011;35993;52.604;10.078;2023-04-06T10:59:02;8.18;;;4.50;;
50102;SDS011;35993;52.604;10.078;2023-04-06T11:01:28;8.13;;;4.22;;
50102;SDS011;35993;52.604;10.078;2023-04-06T11:03:54;8.98;;;4.95;;
50102;SDS011;35993;52.604;10.078;2023-04-06T11:06:21;9.68;;;4.50;;
50102;SDS011;35993;52.604;10.078;2023-04-06T11:08:49;7.35;;;4.50;;
50102;SDS011;35993;52.604;10.078;2023-04-06T11:11:17;9.23;;;4.47;;
50102;SDS011;35993;52.604;10.078;2023-04-06T11:13:45;9.23;;;4.55;;
50102;SDS011;35993;52.604;10.078;2023-04-06T11:16:16;8.18;;;4.93;;
50102;SDS011;35993;52.604;10.078;2023-04-06T11:19:02;8.63;;;4.78;;
50102;SDS011;35993;52.604;10.078;2023-04-06T11:21:34;8.63;;;5.30;;
50102;SDS011;35993;52.604;10.078;2023-04-06T11:26:42;9.43;;;5.63;;
50102;SDS011;35993;52.604;10.078;2023-04-06T11:29:10;9.60;;;5.88;;
50102;SDS011;35993;52.604;10.078;2023-04-06T11:31:39;10.75;;;6.07;;
50102;SDS011;35993;52.604;10.078;2023-04-06T11:34:09;8.38;;;5.30;;
50102;SDS011;35993;52.604;10.078;2023-04-06T11:36:35;8.02;;;5.15;;
50102;SDS011;35993;52.604;10.078;2023-04-06T11:39:03;9.57;;;5.22;;
50102;SDS011;35993;52.604;10.078;2023-04-06T11:41:28;7.22;;;5.00;;
50102;SDS011;35993;52.604;10.078;2023-04-06T11:43:55;7.22;;;5.10;;
50102;SDS011;35993;52.604;10.078;2023-04-06T11:46:21;8.13;;;5.05;;
50102;SDS011;35993;52.604;10.078;2023-04-06T11:48:47;8.02;;;5.05;;
50102;SDS011;35993;52.604;10.078;2023-04-06T11:51:12;7.28;;;4.70;;
50102;SDS011;35993;52.604;10.078;2023-04-06T11:53:47;7.88;;;5.38;;
50102;SDS011;35993;52.604;10.078;2023-04-06T11:56:22;7.82;;;5.10;;
50102;SDS011;35993;52.604;10.078;2023-04-06T11:58:49;9.02;;;5.32;;
50102;SDS011;35993;52.604;10.078;2023-04-06T12:01:15;9.20;;;5.50;;
50102;SDS011;35993;52.604;10.078;2023-04-06T12:03:40;8.93;;;5.43;;
50102;SDS011;35993;52.604;10.078;2023-04-06T12:06:06;7.05;;;4.70;;
50102;SDS011;35993;52.604;10.078;2023-04-06T12:08:31;7.03;;;5.18;;
50102;SDS011;35993;52.604;10.078;2023-04-06T12:10:57;12.45;;;5.18;;
50102;SDS011;35993;52.604;10.078;2023-04-06T12:13:24;9.57;;;4.72;;
50102;SDS011;35993;52.604;10.078;2023-04-06T12:15:50;7.60;;;4.55;;
50102;SDS011;35993;52.604;10.078;2023-04-06T12:18:15;7.38;;;4.53;;
50102;SDS011;35993;52.604;10.078;2023-04-06T12:20:41;6.28;;;4.85;;
50102;SDS011;35993;52.604;10.078;2023-04-06T12:23:06;9.18;;;5.72;;
50102;SDS011;35993;52.604;10.078;2023-04-06T12:25:32;10.05;;;5.78;;
50102;SDS011;35993;52.604;10.078;2023-04-06T12:27:57;7.95;;;5.35;;
50102;SDS011;35993;52.604;10.078;2023-04-06T12:30:23;10.52;;;5.50;;
50102;SDS011;35993;52.604;10.078;2023-04-06T12:32:49;8.15;;;5.22;;
50102;SDS011;35993;52.604;10.078;2023-04-06T12:35:15;7.88;;;5.50;;
50102;SDS011;35993;52.604;10.078;2023-04-06T12:37:41;10.45;;;5.68;;
50102;SDS011;35993;52.604;10.078;2023-04-06T12:40:07;7.10;;;5.20;;
50102;SDS011;35993;52.604;10.078;2023-04-06T12:42:36;9.65;;;5.30;;
50102;SDS011;35993;52.604;10.078;2023-04-06T12:45:01;10.13;;;5.80;;
50102;SDS011;35993;52.604;10.078;2023-04-06T12:47:27;8.45;;;5.10;;
50102;SDS011;35993;52.604;10.078;2023-04-06T12:49:54;8.15;;;5.40;;
50102;SDS011;35993;52.604;10.078;2023-04-06T12:52:19;8.40;;;4.68;;
50102;SDS011;35993;52.604;10.078;2023-04-06T12:54:45;8.55;;;4.70;;
50102;SDS011;35993;52.604;10.078;2023-04-06T12:57:12;6.10;;;4.10;;
50102;SDS011;35993;52.604;10.078;2023-04-06T12:59:37;8.60;;;5.05;;
50102;SDS011;35993;52.604;10.078;2023-04-06T13:02:03;7.85;;;5.20;;
50102;SDS011;35993;52.604;10.078;2023-04-06T13:04:29;8.65;;;5.07;;
50102;SDS011;35993;52.604;10.078;2023-04-06T13:06:54;8.35;;;4.97;;
50102;SDS011;35993;52.604;10.078;2023-04-06T13:09:20;8.18;;;4.97;;
50102;SDS011;35993;52.604;10.078;2023-04-06T13:11:46;7.35;;;4.85;;
50102;SDS011;35993;52.604;10.078;2023-04-06T13:14:11;6.40;;;4.38;;
50102;SDS011;35993;52.604;10.078;2023-04-06T13:16:37;7.82;;;4.45;;
50102;SDS011;35993;52.604;10.078;2023-04-06T13:19:02;7.10;;;4.80;;
50102;SDS011;35993;52.604;10.078;2023-04-06T13:21:28;9.35;;;4.88;;
50102;SDS011;35993;52.604;10.078;2023-04-06T13:23:54;8.77;;;4.22;;
50102;SDS011;35993;52.604;10.078;2023-04-06T13:26:20;7.95;;;4.85;;
50102;SDS011;35993;52.604;10.078;2023-04-06T13:28:46;5.80;;;4.32;;
50102;SDS011;35993;52.604;10.078;2023-04-06T13:31:12;7.95;;;5.00;;
50102;SDS011;35993;52.604;10.078;2023-04-06T13:33:37;7.03;;;4.72;;
50102;SDS011;35993;52.604;10.078;2023-04-06T13:36:04;11.68;;;4.80;;
50102;SDS011;35993;52.604;10.078;2023-04-06T13:38:31;6.70;;;4.70;;
50102;SDS011;35993;52.604;10.078;2023-04-06T13:40:58;6.43;;;4.32;;
50102;SDS011;35993;52.604;10.078;2023-04-06T13:43:24;6.18;;;3.95;;
50102;SDS011;35993;52.604;10.078;2023-04-06T13:45:52;9.45;;;4.50;;
50102;SDS011;35993;52.604;10.078;2023-04-06T13:48:20;8.70;;;4.95;;
50102;SDS011;35993;52.604;10.078;2023-04-06T13:50:46;6.95;;;4.82;;
50102;SDS011;35993;52.604;10.078;2023-04-06T13:53:11;6.95;;;4.47;;
50102;SDS011;35993;52.604;10.078;2023-04-06T13:55:37;7.38;;;4.40;;
50102;SDS011;35993;52.604;10.078;2023-04-06T13:58:03;8.02;;;4.93;;
50102;SDS011;35993;52.604;10.078;2023-04-06T14:00:28;6.38;;;4.35;;
50102;SDS011;35993;52.604;10.078;2023-04-06T14:02:54;7.75;;;4.65;;
50102;SDS011;35993;52.604;10.078;2023-04-06T14:05:20;7.88;;;5.35;;
50102;SDS011;35993;52.604;10.078;2023-04-06T14:07:47;8.02;;;5.28;;
50102;SDS011;35993;52.604;10.078;2023-04-06T14:10:12;6.95;;;4.57;;
50102;SDS011;35993;52.604;10.078;2023-04-06T14:12:41;6.07;;;4.13;;
50102;SDS011;35993;52.604;10.078;2023-04-06T14:15:08;9.48;;;4.65;;
50102;SDS011;35993;52.604;10.078;2023-04-06T14:17:34;6.03;;;4.30;;
50102;SDS011;35993;52.604;10.078;2023-04-06T14:19:59;9.10;;;5.28;;
50102;SDS011;35993;52.604;10.078;2023-04-06T14:22:25;9.05;;;4.70;;
50102;SDS011;35993;52.604;10.078;2023-04-06T14:24:51;10.43;;;5.18;;
50102;SDS011;35993;52.604;10.078;2023-04-06T14:27:16;7.03;;;5.10;;
50102;SDS011;35993;52.604;10.078;2023-04-06T14:29:42;7.93;;;5.80;;
50102;SDS011;35993;52.604;10.078;2023-04-06T14:32:07;8.95;;;5.18;;
50102;SDS011;35993;52.604;10.078;2023-04-06T14:34:33;9.45;;;5.18;;
50102;SDS011;35993;52.604;10.078;2023-04-06T14:36:58;6.57;;;4.57;;
50102;SDS011;35993;52.604;10.078;2023-04-06T14:39:24;6.13;;;4.07;;